Alsville, South Dakota
Current Conditions -  °F | °C
As of 11:53 AM on Thursday 23 Oct 2014 (Local Time) from KATY Reporting Station
Clear Clear  
Wind Chill: 57°   Ceiling: Unl
Heat Index: 57°   Visibility: 10mi
Dew Point: 47°   Wind: 7mph
Humidity: 69%   Direction: 180°S
Pressure: 30"   Gusts: NA
Location:  44.5892°N, 97.2322°W
Report Text: KATY 231653Z AUTO 18006KT 10SM CLR 14/08 A3000 RMK AO2 SLP162 T01390083
Loading
Personal Weather Stations






























Interactive Weather Map
Tropical Storm Tracking
New forecast layout! Learn more

10-Day Weather Forecast

Advertisements
Track Severe Weather on mobile